Grand Strand Airport North Myrtle Beach US
ICAO: KCRE
IATA: CRE
Category: Medium
Scheduled Services: No

Elevation: 32 ft
TransAlt. 18000 ft.

Airport Communications:
MYRTLE BEACH APP/DEP:119.2
ATIS:119.625
CTAF:124.6
STRAND GND:121.8
ANDERSON RDO:123.6
STRAND TWR:124.6
UNICOM:122.95

KCRE Zoom In..

Runways:

(A) RW 05 length 5997 ft width 100 ft
---- / hdg 54

(B) RW 23 length 5997 ft width 100 ft
ILS 111.70 / hdg 234

Location; KCRE
Day. 20 / Time. 02.53 Zulu
* Altimeter: 30.02
* Temperature: 27° c. 80.6°f.
* Wind from: 080° Speed 08 kn.
Dewpoint: 22° c.
Visibility: 10 Statute Miles.
Clouds: Clear (automated report).

KCRE 200253Z AUTO 08008KT 10SM CLR 27/22 A3002 RMK AO1 SLP166 T02670217 53004


Wind From 080°
Speed 08 kn.

 
 
jpsmedia.com for Web Design worldairports.se 2018   terms of use